Time;durP1;ratioP1;P1;durP2;ratioP2;P2;SDS_P1;SDS_P2;PMS_P1;PMS_P2;Temp;Humidity;BMP_temperature;BMP_pressure;BME280_temperature;BME280_humidity;BME280_pressure;Samples;Min_cycle;Max_cycle;Signal;HPM_P1;HPM_P2
2024/01/26 00:00:15;;;;;;;;;;;;;;;5.26;64.34;100275.84;5075052;28;20364;-73
2024/01/26 00:02:44;;;;;;;0.30;0.30;;;;;;;5.28;64.83;100258.16;5073128;28;19927;-72
2024/01/26 00:05:13;;;;;;;1.13;1.13;;;;;;;5.25;64.31;100258.97;5074470;28;20079;-73
2024/01/26 00:07:43;;;;;;;0.40;0.40;;;;;;;5.20;64.42;100260.50;5073664;28;20040;-73
2024/01/26 00:10:12;;;;;;;0.30;0.30;;;;;;;5.20;64.38;100262.16;5074153;28;20505;-73
2024/01/26 00:12:41;;;;;;;0.30;0.30;;;;;;;5.19;64.80;100268.88;5074416;28;20548;-73
2024/01/26 00:15:10;;;;;;;0.40;0.40;;;;;;;5.19;64.73;100258.75;5074728;28;20044;-73
2024/01/26 00:17:41;;;;;;;0.20;0.20;;;;;;;5.10;64.50;100253.44;5074377;28;20043;-72
2024/01/26 00:20:10;;;;;;;0.20;0.20;;;;;;;5.17;64.70;100265.44;5073124;28;20091;-72
2024/01/26 00:22:39;;;;;;;14.73;1.67;;;;;;;5.13;64.32;100263.66;5074312;28;20045;-73
2024/01/26 00:25:09;;;;;;;0.50;0.50;;;;;;;5.13;64.60;100263.66;5074295;28;20036;-72
2024/01/26 00:27:38;;;;;;;0.30;0.30;;;;;;;5.13;64.77;100266.19;5074420;28;20321;-72
2024/01/26 00:30:08;;;;;;;0.30;0.30;;;;;;;5.17;64.35;100269.66;5073897;28;20076;-73
2024/01/26 00:32:37;;;;;;;0.20;0.20;;;;;;;5.18;64.23;100264.63;5073791;28;20048;-72
2024/01/26 00:35:09;;;;;;;0.40;0.40;;;;;;;5.17;64.34;100270.50;5072776;28;20376;-73
2024/01/26 00:37:38;;;;;;;0.20;0.20;;;;;;;5.15;64.39;100267.09;5074110;28;20301;-73
2024/01/26 00:40:08;;;;;;;0.30;0.30;;;;;;;5.17;64.13;100274.72;5074299;28;20064;-73
2024/01/26 00:42:37;;;;;;;0.50;0.50;;;;;;;5.13;63.93;100263.66;5073929;28;20288;-73
2024/01/26 00:45:06;;;;;;;5.53;1.87;;;;;;;5.09;64.26;100261.81;5073144;28;20068;-72
2024/01/26 00:47:36;;;;;;;0.60;0.60;;;;;;;5.07;64.43;100257.53;5073983;28;20052;-73
2024/01/26 00:50:05;;;;;;;0.90;0.90;;;;;;;5.03;64.39;100266.72;5073716;28;20122;-73
2024/01/26 00:52:36;;;;;;;0.30;0.30;;;;;;;5.01;64.50;100270.00;5072365;28;20274;-72
2024/01/26 00:55:05;;;;;;;1.75;0.65;;;;;;;4.95;64.34;100268.13;5073581;28;20072;-73
2024/01/26 00:57:34;;;;;;;0.65;0.65;;;;;;;4.93;64.63;100274.81;5073835;28;20039;-73
2024/01/26 01:00:07;;;;;;;0.40;0.40;;;;;;;4.91;64.40;100271.38;5055803;28;20041;-72
2024/01/26 01:02:36;;;;;;;0.40;0.40;;;;;;;4.89;64.38;100272.16;5073548;28;20273;-73
2024/01/26 01:05:07;;;;;;;1.27;0.67;;;;;;;4.86;64.33;100267.00;5073403;28;20040;-73
2024/01/26 01:07:37;;;;;;;0.50;0.50;;;;;;;4.86;64.12;100272.03;5073806;28;20079;-72
2024/01/26 01:10:07;;;;;;;0.40;0.40;;;;;;;4.81;64.25;100273.56;5072740;28;20184;-73
2024/01/26 01:12:38;;;;;;;0.50;0.50;;;;;;;4.75;64.34;100276.78;5072052;28;20390;-73
2024/01/26 01:15:11;;;;;;;0.70;0.70;;;;;;;4.69;64.39;100277.44;5073748;28;20168;-73
2024/01/26 01:17:43;;;;;;;0.40;0.40;;;;;;;4.65;64.54;100282.34;5074017;28;20135;-73
2024/01/26 01:20:13;;;;;;;1.75;1.13;;;;;;;4.62;64.85;100277.19;5074133;28;20049;-73
2024/01/26 01:22:45;;;;;;;0.38;0.38;;;;;;;4.59;64.84;100282.13;5073328;28;20426;-73
2024/01/26 01:25:14;;;;;;;0.30;0.30;;;;;;;4.59;64.77;100293.13;5073822;28;20044;-72
2024/01/26 01:27:43;;;;;;;0.50;0.50;;;;;;;4.61;64.96;100295.69;5071800;28;20055;-73
2024/01/26 01:30:12;;;;;;;0.43;0.43;;;;;;;4.61;64.83;100301.59;5073471;28;20036;-73
2024/01/26 01:32:41;;;;;;;0.20;0.20;;;;;;;4.59;65.00;100300.69;5071985;28;20171;-73
2024/01/26 01:35:10;;;;;;;0.80;0.80;;;;;;;4.61;65.09;100303.25;5073468;28;20040;-73
2024/01/26 01:37:39;;;;;;;0.30;0.30;;;;;;;4.56;65.41;100305.63;5073747;28;20067;-73
2024/01/26 01:40:11;;;;;;;6.20;1.27;;;;;;;4.53;65.13;100302.16;5073413;28;20067;-73
2024/01/26 01:42:40;;;;;;;1.10;1.00;;;;;;;4.47;65.31;100299.41;5073370;28;20055;-73
2024/01/26 01:45:14;;;;;;;0.30;0.30;;;;;;;4.46;65.63;100305.31;5073074;28;20047;-72
2024/01/26 01:47:43;;;;;;;0.20;0.20;;;;;;;4.47;65.94;100296.91;5073153;28;20055;-72
2024/01/26 01:50:13;;;;;;;0.63;0.63;;;;;;;4.51;66.21;100291.16;5071927;28;20041;-72
2024/01/26 01:52:43;;;;;;;0.20;0.20;;;;;;;4.50;66.30;100291.94;5073291;28;20049;-73
2024/01/26 01:55:16;;;;;;;0.30;0.30;;;;;;;4.46;65.97;100292.66;5073298;28;20048;-73
2024/01/26 01:57:45;;;;;;;0.30;0.30;;;;;;;4.42;66.40;100296.75;5076780;28;20054;-73
2024/01/26 02:00:16;;;;;;;0.32;0.32;;;;;;;4.40;66.25;100289.91;5076987;28;20040;-73
2024/01/26 02:02:49;;;;;;;0.47;0.47;;;;;;;4.41;66.42;100296.69;5075563;28;20131;-73
2024/01/26 02:05:19;;;;;;;0.57;0.57;;;;;;;4.39;66.14;100291.59;5076832;28;20585;-73
2024/01/26 02:07:50;;;;;;;0.65;0.65;;;;;;;4.34;66.32;100295.66;5076588;28;20049;-73
2024/01/26 02:10:21;;;;;;;2.75;1.33;;;;;;;4.27;67.01;100287.81;5076863;28;20094;-73
2024/01/26 02:12:50;;;;;;;0.60;0.60;;;;;;;4.24;66.99;100288.56;5076522;28;20079;-72
2024/01/26 02:15:19;;;;;;;0.50;0.50;;;;;;;4.21;67.23;100297.69;5075233;28;20505;-72
2024/01/26 02:17:59;;;;;;;0.40;0.40;;;;;;;4.25;67.25;100289.44;5076433;28;20125;-73
2024/01/26 02:20:28;;;;;;;;;;;;;;;4.29;66.74;100293.75;5076734;28;20511;-73
2024/01/26 02:23:23;;;;;;;0.52;0.52;;;;;;;4.31;66.86;100295.53;5076606;28;20018;-72
2024/01/26 02:25:52;;;;;;;0.57;0.57;;;;;;;4.31;67.06;100294.66;5076145;28;20495;-73
2024/01/26 02:28:20;;;;;;;0.40;0.40;;;;;;;4.26;67.18;100286.94;5075408;28;20043;-73
2024/01/26 02:30:49;;;;;;;2.10;1.60;;;;;;;4.21;67.54;100285.91;5076420;28;20040;-73
2024/01/26 02:33:18;;;;;;;0.30;0.30;;;;;;;4.17;67.33;100283.25;5076349;28;20040;-73
2024/01/26 02:35:47;;;;;;;0.40;0.40;;;;;;;4.14;67.08;100281.47;5076339;28;20317;-73
2024/01/26 02:38:17;;;;;;;0.20;0.20;;;;;;;4.15;67.42;100287.38;5076589;28;20036;-73
2024/01/26 02:40:48;;;;;;;0.30;0.30;;;;;;;4.17;67.92;100291.69;5091815;28;20049;-73
2024/01/26 02:43:17;;;;;;;0.50;0.50;;;;;;;4.15;67.92;100290.75;5076285;28;20049;-72
2024/01/26 02:45:47;;;;;;;0.47;0.45;;;;;;;4.11;67.58;100286.41;5075719;28;20036;-73
2024/01/26 02:48:15;;;;;;;;;;;;;;;4.06;67.81;100293.81;5076520;28;20040;-73
2024/01/26 02:50:44;;;;;;;0.47;0.47;;;;;;;4.06;67.96;100291.31;5075867;28;19931;-73
2024/01/26 02:53:13;;;;;;;0.40;0.40;;;;;;;4.07;67.61;100299.75;5075763;28;20481;-73
2024/01/26 02:55:43;;;;;;;1.03;1.03;;;;;;;4.11;68.32;100300.69;5075930;28;20086;-73
2024/01/26 02:58:12;;;;;;;0.50;0.50;;;;;;;4.10;68.06;100304.03;5074695;28;20313;-73
2024/01/26 03:00:41;;;;;;;0.43;0.43;;;;;;;4.12;68.01;100307.47;5074884;28;20051;-73
2024/01/26 03:03:10;;;;;;;0.40;0.40;;;;;;;4.13;68.17;100310.03;5075472;28;20072;-73
2024/01/26 03:05:40;;;;;;;0.30;0.30;;;;;;;4.13;68.24;100314.25;5074485;28;20066;-73
2024/01/26 03:08:09;;;;;;;0.30;0.30;;;;;;;4.14;68.22;100315.97;5074973;28;20044;-72
2024/01/26 03:10:38;;;;;;;0.33;0.33;;;;;;;4.16;68.23;100317.72;5075784;28;20044;-73
2024/01/26 03:13:09;;;;;;;0.30;0.30;;;;;;;4.18;68.26;100317.78;5075686;28;20037;-73
2024/01/26 03:15:38;;;;;;;0.30;0.30;;;;;;;3.82;68.37;100247.53;5075249;28;20053;-73
2024/01/26 03:18:07;;;;;;;0.33;0.33;;;;;;;4.18;68.45;100313.59;5074105;28;20406;-73
2024/01/26 03:20:36;;;;;;;0.40;0.40;;;;;;;4.19;68.21;100319.50;5074738;28;20376;-73
2024/01/26 03:23:05;;;;;;;0.30;0.30;;;;;;;4.18;68.75;100317.78;5075413;28;20411;-73
2024/01/26 03:25:34;;;;;;;0.40;0.40;;;;;;;4.14;68.31;100310.91;5074741;28;20040;-73
2024/01/26 03:28:02;;;;;;;0.98;0.88;;;;;;;4.22;68.11;100329.72;5074994;28;20107;-73
2024/01/26 03:30:33;;;;;;;0.40;0.40;;;;;;;4.23;68.10;100336.47;5075022;28;20044;-72
2024/01/26 03:33:02;;;;;;;0.30;0.30;;;;;;;4.21;68.50;100333.03;5075313;28;20060;-73
2024/01/26 03:35:30;;;;;;;1.75;1.33;;;;;;;4.15;68.61;100337.91;5057303;28;20041;-72
2024/01/26 03:37:59;;;;;;;0.30;0.30;;;;;;;4.10;68.77;100341.94;5075145;28;20098;-74
2024/01/26 03:40:28;;;;;;;0.40;0.40;;;;;;;4.00;68.80;100338.22;5075326;28;20040;-73
2024/01/26 03:42:57;;;;;;;13.10;1.90;;;;;;;3.90;68.99;100342.06;5075049;28;20032;-72
2024/01/26 03:45:26;;;;;;;0.57;0.57;;;;;;;3.84;69.12;100351.94;5073464;28;20265;-73
2024/01/26 03:47:56;;;;;;;0.20;0.20;;;;;;;3.81;69.57;100354.38;5073497;28;20037;-73
2024/01/26 03:50:25;;;;;;;0.75;0.75;;;;;;;3.84;70.10;100351.94;5074931;28;20498;-73
2024/01/26 03:52:54;;;;;;;0.65;0.55;;;;;;;3.81;70.30;100361.94;5074558;28;20045;-73
2024/01/26 03:55:23;;;;;;;0.50;0.50;;;;;;;3.77;70.49;100370.19;5073732;28;20047;-73
2024/01/26 03:57:52;;;;;;;0.30;0.30;;;;;;;3.75;70.60;100376.84;5073501;28;20083;-73
2024/01/26 04:00:21;;;;;;;0.40;0.40;;;;;;;3.68;70.58;100379.94;5074968;28;20036;-73
2024/01/26 04:02:49;;;;;;;0.22;0.22;;;;;;;3.76;71.21;100373.53;5074465;28;20032;-73
2024/01/26 04:05:20;;;;;;;0.30;0.30;;;;;;;3.80;71.34;100382.94;5074640;28;20048;-73
2024/01/26 04:07:48;;;;;;;0.40;0.40;;;;;;;3.78;71.25;100382.00;5074567;28;20441;-73
2024/01/26 04:10:17;;;;;;;0.30;0.30;;;;;;;3.72;71.54;100375.88;5074315;28;20528;-73
2024/01/26 04:12:46;;;;;;;0.33;0.33;;;;;;;3.67;71.62;100383.25;5074527;28;20033;-73
2024/01/26 04:15:15;;;;;;;0.30;0.30;;;;;;;3.69;71.77;100386.72;5074089;28;20051;-73
2024/01/26 04:17:44;;;;;;;0.25;0.25;;;;;;;3.66;72.18;100389.13;5072519;28;20652;-73
2024/01/26 04:20:13;;;;;;;4.10;1.00;;;;;;;3.62;71.95;100388.97;5073088;28;20032;-73
2024/01/26 04:22:44;;;;;;;1.17;1.07;;;;;;;3.59;72.34;100384.66;5074297;28;20032;-73
2024/01/26 04:25:13;;;;;;;1.65;0.60;;;;;;;3.55;72.09;100387.84;5073102;28;20338;-73
2024/01/26 04:27:41;;;;;;;0.30;0.30;;;;;;;3.51;72.59;100388.53;5074002;28;20076;-73
2024/01/26 04:30:11;;;;;;;0.20;0.20;;;;;;;3.50;72.78;100396.06;5074059;28;20044;-73
2024/01/26 04:32:40;;;;;;;0.73;0.73;;;;;;;3.45;72.82;100390.84;5073289;28;20036;-73
2024/01/26 04:35:12;;;;;;;0.20;0.20;;;;;;;3.40;73.29;100392.31;5074058;28;20033;-73
2024/01/26 04:37:41;;;;;;;0.85;0.85;;;;;;;3.35;72.92;100388.75;5073034;28;20067;-73
2024/01/26 04:40:12;;;;;;;0.32;0.32;;;;;;;3.31;72.82;100391.97;5074072;28;20491;-72
2024/01/26 04:42:41;;;;;;;0.30;0.30;;;;;;;3.29;73.05;100399.44;5074067;28;20052;-73
2024/01/26 04:45:10;;;;;;;0.70;0.70;;;;;;;3.32;73.57;100401.22;5072675;28;20032;-73
2024/01/26 04:47:39;;;;;;;0.40;0.40;;;;;;;3.32;73.53;100404.63;5073631;28;20052;-73
2024/01/26 04:50:09;;;;;;;0.40;0.40;;;;;;;3.27;74.00;100401.06;5073836;28;20036;-73
2024/01/26 04:52:37;;;;;;;;;;;;;;;3.25;73.73;100405.19;5074183;28;20032;-73
2024/01/26 04:55:13;;;;;;;0.50;0.50;;;;;;;3.17;74.05;100398.09;5073952;28;19924;-73
2024/01/26 04:57:43;;;;;;;0.30;0.30;;;;;;;3.23;74.47;100413.50;5073633;28;20048;-73
2024/01/26 05:00:12;;;;;;;0.32;0.32;;;;;;;3.19;74.15;100406.59;5073786;28;20048;-73
2024/01/26 05:02:41;;;;;;;0.20;0.20;;;;;;;3.16;74.04;100409.00;5073582;28;20049;-73
2024/01/26 05:05:13;;;;;;;0.30;0.30;;;;;;;3.16;75.18;100411.53;5073542;28;20395;-72
2024/01/26 05:07:43;;;;;;;0.70;0.60;;;;;;;3.15;74.33;100425.78;5072417;28;20387;-73
2024/01/26 05:10:13;;;;;;;0.30;0.30;;;;;;;3.15;75.26;100435.00;5073340;28;20125;-73
2024/01/26 05:12:42;;;;;;;0.20;0.20;;;;;;;3.13;75.60;100432.44;5073449;28;20059;-73
2024/01/26 05:15:12;;;;;;;0.20;0.20;;;;;;;3.07;74.93;100431.31;5073392;28;20044;-73
2024/01/26 05:17:41;;;;;;;0.43;0.43;;;;;;;3.08;75.20;100438.06;5072194;28;20040;-73
2024/01/26 05:20:10;;;;;;;0.80;0.68;;;;;;;3.08;75.67;100443.97;5073491;28;20402;-73
2024/01/26 05:22:40;;;;;;;0.30;0.30;;;;;;;3.16;76.33;100436.75;5073606;28;20082;-73
2024/01/26 05:25:09;;;;;;;0.40;0.40;;;;;;;3.20;76.35;100436.06;5073626;28;20040;-73
2024/01/26 05:27:41;;;;;;;0.52;0.52;;;;;;;3.21;76.02;100435.28;5073789;28;20139;-73
2024/01/26 05:30:11;;;;;;;0.65;0.65;;;;;;;2.83;76.29;100364.78;5075031;28;20082;-73
2024/01/26 05:32:40;;;;;;;;;;;;;;;3.32;76.33;100434.91;5077223;28;20086;-73
2024/01/26 05:35:09;;;;;;;0.22;0.22;;;;;;;3.37;76.49;100432.56;5077515;28;19943;-73
2024/01/26 05:37:38;;;;;;;1.15;1.13;;;;;;;3.43;76.70;100431.94;5077472;28;20075;-73
2024/01/26 05:40:08;;;;;;;0.43;0.43;;;;;;;3.45;76.22;100426.16;5077050;28;20048;-73
2024/01/26 05:42:36;;;;;;;0.50;0.50;;;;;;;3.47;76.47;100424.56;5077347;28;20059;-73
2024/01/26 05:45:08;;;;;;;0.93;0.93;;;;;;;3.47;76.23;100419.50;5077291;28;20036;-73
2024/01/26 05:47:37;;;;;;;0.57;0.57;;;;;;;3.46;76.54;100427.00;5077189;28;20037;-73
2024/01/26 05:50:07;;;;;;;0.70;0.70;;;;;;;3.45;76.15;100431.19;5077182;28;20044;-73
2024/01/26 05:52:36;;;;;;;;;;;;;;;3.49;76.73;100435.56;5077474;28;20118;-73
2024/01/26 05:55:05;;;;;;;1.00;0.93;;;;;;;3.46;76.78;100432.91;5076711;28;19920;-73
2024/01/26 05:57:34;;;;;;;4.20;1.52;;;;;;;3.45;76.76;100431.19;5076806;28;20049;-73
2024/01/26 06:00:04;;;;;;;2.72;2.45;;;;;;;3.40;76.83;100437.72;5076590;28;20049;-73
2024/01/26 06:02:35;;;;;;;3.35;2.58;;;;;;;3.35;77.20;100435.03;5077287;28;20048;-73
2024/01/26 06:05:05;;;;;;;3.15;1.98;;;;;;;3.31;77.28;100435.69;5076776;28;20053;-73
2024/01/26 06:07:34;;;;;;;;;;;;;;;3.29;76.64;100433.91;5077500;28;20068;-73
2024/01/26 06:10:02;;;;;;;0.85;0.85;;;;;;;3.24;77.00;100435.38;5077082;28;20363;-73
2024/01/26 06:12:31;;;;;;;0.70;0.70;;;;;;;3.22;77.59;100431.94;5076447;28;20498;-73
2024/01/26 06:15:00;;;;;;;0.20;0.20;;;;;;;3.21;77.73;100432.75;5076358;28;20287;-73
2024/01/26 06:17:29;;;;;;;0.40;0.40;;;;;;;3.21;77.56;100435.28;5076422;28;20052;-73
2024/01/26 06:20:00;;;;;;;0.50;0.50;;;;;;;3.18;77.78;100435.13;5075060;28;20127;-73
2024/01/26 06:22:29;;;;;;;0.32;0.32;;;;;;;3.15;77.73;100448.47;5076423;28;20056;-73
2024/01/26 06:24:58;;;;;;;0.83;0.83;;;;;;;3.13;77.96;100447.56;5076574;28;20513;-73
2024/01/26 06:27:26;;;;;;;0.30;0.30;;;;;;;3.13;77.82;100446.69;5076464;28;20277;-73
2024/01/26 06:29:55;;;;;;;0.73;0.73;;;;;;;3.15;77.54;100443.44;5076214;28;20074;-73
2024/01/26 06:32:24;;;;;;;0.47;0.47;;;;;;;3.17;77.66;100458.63;5076679;28;20760;-73
2024/01/26 06:34:53;;;;;;;0.30;0.30;;;;;;;3.21;77.20;100456.31;5075111;28;20041;-73
2024/01/26 06:37:25;;;;;;;0.20;0.20;;;;;;;3.25;77.42;100462.31;5075910;28;20048;-73
2024/01/26 06:39:55;;;;;;;0.20;0.20;;;;;;;3.26;77.65;100469.09;5076567;28;20055;-73
2024/01/26 06:42:25;;;;;;;0.20;0.20;;;;;;;3.24;77.54;100468.16;5075268;28;20065;-73
2024/01/26 06:44:55;;;;;;;0.20;0.20;;;;;;;3.24;77.36;100463.09;5075935;28;20060;-72
2024/01/26 06:47:24;;;;;;;0.75;0.75;;;;;;;3.22;77.17;100472.28;5076146;28;20121;-73
2024/01/26 06:49:52;;;;;;;0.20;0.20;;;;;;;3.15;77.43;100475.34;5075678;28;20044;-73
2024/01/26 06:52:23;;;;;;;0.65;0.65;;;;;;;3.04;77.72;100477.44;5076031;28;20391;-73
2024/01/26 06:54:52;;;;;;;0.40;0.40;;;;;;;2.86;77.42;100461.53;5075658;28;20053;-73
2024/01/26 06:57:21;;;;;;;0.30;0.30;;;;;;;2.95;77.60;100481.25;5025152;28;20506;-73
2024/01/26 06:59:49;;;;;;;0.40;0.40;;;;;;;3.22;78.65;100488.28;5074753;28;20049;-72
2024/01/26 07:02:19;;;;;;;0.30;0.30;;;;;;;3.56;78.47;100487.13;5082545;28;20042;-73
2024/01/26 07:04:49;;;;;;;0.38;0.38;;;;;;;3.69;78.64;100487.69;5095602;28;20056;-73
2024/01/26 07:07:18;;;;;;;0.30;0.30;;;;;;;3.64;78.02;100484.13;5094170;28;20047;-73
2024/01/26 07:09:48;;;;;;;0.55;0.55;;;;;;;3.57;77.44;100492.25;5095553;28;20059;-73
2024/01/26 07:12:17;;;;;;;1.33;0.88;;;;;;;3.47;77.91;100497.72;5095460;28;20048;-72
2024/01/26 07:14:46;;;;;;;0.28;0.28;;;;;;;3.47;78.46;100505.28;5095671;28;20044;-73
2024/01/26 07:17:14;;;;;;;0.50;0.50;;;;;;;3.53;78.13;100500.47;5095794;28;20036;-73
2024/01/26 07:19:43;;;;;;;5.37;2.20;;;;;;;3.55;78.54;100506.44;5094763;28;20101;-73
2024/01/26 07:22:13;;;;;;;;;;;;;;;3.62;77.96;100510.09;5095810;28;20436;-73
2024/01/26 07:24:41;;;;;;;1.02;0.77;;;;;;;3.74;78.50;100516.47;5095291;28;19923;-73
2024/01/26 07:27:11;;;;;;;0.20;0.20;;;;;;;3.79;77.89;100525.09;5095543;28;20043;-73
2024/01/26 07:29:40;;;;;;;0.30;0.30;;;;;;;3.80;78.30;100520.91;5095372;28;20067;-72
2024/01/26 07:32:09;;;;;;;0.32;0.32;;;;;;;3.41;78.04;100454.56;5091982;28;20039;-73
2024/01/26 07:34:37;;;;;;;0.30;0.30;;;;;;;3.76;77.95;100526.66;5088988;28;20406;-73
2024/01/26 07:37:07;;;;;;;0.52;0.52;;;;;;;3.77;77.73;100505.63;5095337;28;20040;-73
2024/01/26 07:39:36;;;;;;;0.52;0.52;;;;;;;3.93;78.17;100502.94;5095005;28;20487;-73
2024/01/26 07:42:05;;;;;;;0.28;0.28;;;;;;;3.97;78.12;100505.63;5095044;28;20048;-72
2024/01/26 07:44:35;;;;;;;1.42;1.33;;;;;;;4.11;77.85;100505.28;5095288;28;20036;-72
2024/01/26 07:47:05;;;;;;;0.77;0.77;;;;;;;4.31;78.07;100501.84;5095202;28;20383;-72
2024/01/26 07:49:33;;;;;;;3.58;2.22;;;;;;;4.39;77.53;100480.25;5094709;28;20074;-73
2024/01/26 07:52:02;;;;;;;0.55;0.55;;;;;;;4.65;77.71;100499.75;5093926;28;20126;-73
2024/01/26 07:54:31;;;;;;;0.38;0.38;;;;;;;4.81;76.95;100502.00;5094804;28;20044;-72
2024/01/26 07:57:00;;;;;;;0.20;0.20;;;;;;;4.96;76.87;100496.63;5110529;28;20037;-72
2024/01/26 07:59:29;;;;;;;1.57;1.47;;;;;;;4.98;76.15;100475.63;5094903;28;20054;-72
2024/01/26 08:01:59;;;;;;;0.30;0.30;;;;;;;5.22;75.96;100506.84;5093584;28;20858;-73
2024/01/26 08:04:29;;;;;;;0.30;0.30;;;;;;;5.37;75.43;100506.50;5094544;28;20047;-72
2024/01/26 08:06:58;;;;;;;0.75;0.73;;;;;;;5.49;75.25;100509.41;5094773;28;20040;-73
2024/01/26 08:09:27;;;;;;;0.52;0.52;;;;;;;5.63;74.61;100509.84;5094533;28;20078;-72
2024/01/26 08:11:56;;;;;;;;;;;;;;;5.73;74.13;100516.94;5094998;28;20055;-72
2024/01/26 08:14:25;;;;;;;0.30;0.30;;;;;;;5.84;74.18;100516.50;5094738;28;19926;-73
2024/01/26 08:16:54;;;;;;;0.63;0.63;;;;;;;5.87;73.67;100515.72;5093455;28;20028;-73
2024/01/26 08:19:24;;;;;;;0.60;0.60;;;;;;;5.85;72.93;100513.16;5094885;28;20284;-72
2024/01/26 08:21:57;;;;;;;0.30;0.30;;;;;;;5.89;72.45;100503.97;5094308;28;20287;-72
2024/01/26 08:24:26;;;;;;;0.70;0.70;;;;;;;5.96;72.49;100501.69;5092889;28;20043;-72
2024/01/26 08:26:55;;;;;;;0.60;0.60;;;;;;;6.06;72.36;100508.75;5094184;28;20044;-73
2024/01/26 08:29:26;;;;;;;0.50;0.50;;;;;;;6.14;71.92;100509.00;5092599;28;20047;-73
2024/01/26 08:31:56;;;;;;;1.30;1.20;;;;;;;6.15;72.52;100487.88;5094462;28;20048;-72
2024/01/26 08:34:26;;;;;;;0.50;0.50;;;;;;;6.37;72.27;100505.44;5094526;28;20040;-72
2024/01/26 08:36:58;;;;;;;1.00;0.70;;;;;;;6.54;71.66;100506.81;5094202;28;20050;-73
2024/01/26 08:39:27;;;;;;;0.30;0.30;;;;;;;6.67;71.16;100515.63;5094748;28;20066;-72
2024/01/26 08:41:57;;;;;;;0.40;0.40;;;;;;;6.48;70.67;100457.56;5094125;28;20034;-72
2024/01/26 08:44:25;;;;;;;0.20;0.20;;;;;;;6.79;70.61;100489.72;5094131;28;20529;-72
2024/01/26 08:46:54;;;;;;;0.35;0.35;;;;;;;6.97;69.85;100513.06;5094290;28;20032;-73
2024/01/26 08:49:23;;;;;;;0.40;0.40;;;;;;;7.05;70.32;100509.06;5094120;28;20432;-72
2024/01/26 08:51:53;;;;;;;0.50;0.50;;;;;;;7.11;68.98;100511.75;5092624;28;20040;-72
2024/01/26 08:54:22;;;;;;;0.20;0.20;;;;;;;6.81;68.87;100457.66;5092901;28;20050;-72
2024/01/26 08:56:51;;;;;;;0.50;0.50;;;;;;;7.18;68.66;100508.53;5092844;28;20037;-72
2024/01/26 08:59:20;;;;;;;0.63;0.63;;;;;;;6.97;68.90;100449.63;5094028;28;20040;-72
2024/01/26 09:01:49;;;;;;;0.20;0.20;;;;;;;7.33;68.20;100511.47;5092672;28;20040;-73
2024/01/26 09:04:18;;;;;;;5.28;0.65;;;;;;;7.34;67.56;100513.22;5093027;28;20094;-71
2024/01/26 09:06:47;;;;;;;2.80;1.73;;;;;;;7.41;67.38;100520.16;5093854;28;20067;-72
2024/01/26 09:09:26;;;;;;;0.30;0.30;;;;;;;7.46;67.27;100522.81;5093752;28;20073;-73
2024/01/26 09:11:56;;;;;;;0.32;0.32;;;;;;;7.51;67.17;100516.16;5092658;28;20051;-72
2024/01/26 09:14:25;;;;;;;;;;;;;;;7.49;66.78;100521.19;5094221;28;20047;-72
2024/01/26 09:16:53;;;;;;;1.13;0.88;;;;;;;7.56;66.44;100525.59;5093853;28;19927;-73
2024/01/26 09:19:23;;;;;;;2.13;1.80;;;;;;;7.61;65.94;100524.03;5094143;28;20043;-72
2024/01/26 09:21:52;;;;;;;7.80;2.28;;;;;;;7.58;66.16;100511.28;5092523;28;20044;-72
2024/01/26 09:24:21;;;;;;;1.88;1.70;;;;;;;7.76;66.27;100534.59;5093728;28;20044;-73
2024/01/26 09:26:52;;;;;;;1.13;1.07;;;;;;;7.78;65.67;100532.06;5092550;28;20036;-72
2024/01/26 09:29:22;;;;;;;0.68;0.68;;;;;;;7.84;65.54;100530.56;5093593;28;20052;-72
2024/01/26 09:31:54;;;;;;;2.03;1.83;;;;;;;7.96;65.64;100529.97;5093691;28;20056;-72
2024/01/26 09:34:24;;;;;;;1.10;1.05;;;;;;;8.02;64.39;100528.44;5093558;28;20058;-73
2024/01/26 09:36:53;;;;;;;2.83;1.67;;;;;;;8.01;64.99;100526.69;5093594;28;20040;-73
2024/01/26 09:39:25;;;;;;;0.50;0.50;;;;;;;8.22;64.41;100525.47;5093085;28;20556;-72
2024/01/26 09:41:56;;;;;;;0.60;0.60;;;;;;;8.36;63.92;100524.13;5093885;28;20563;-72
2024/01/26 09:44:25;;;;;;;0.30;0.30;;;;;;;8.49;64.03;100521.88;5092055;28;20040;-73
2024/01/26 09:46:55;;;;;;;0.90;0.77;;;;;;;8.56;63.23;100522.88;5092248;28;20052;-72
2024/01/26 09:49:26;;;;;;;;;;;;;;;8.55;62.91;100523.69;5094049;28;20032;-73
2024/01/26 09:51:56;;;;;;;1.02;0.98;;;;;;;8.46;63.00;100515.88;5093636;28;19920;-71
2024/01/26 09:54:27;;;;;;;0.30;0.30;;;;;;;8.60;63.02;100524.63;5093439;28;20044;-72
2024/01/26 09:56:58;;;;;;;0.30;0.30;;;;;;;8.72;62.91;100514.72;5093839;28;20036;-72
2024/01/26 09:59:27;;;;;;;1.48;0.95;;;;;;;8.89;62.48;100523.53;5093272;28;20041;-72
2024/01/26 10:01:56;;;;;;;1.15;1.05;;;;;;;8.90;61.77;100512.50;5092167;28;20078;-72
2024/01/26 10:04:24;;;;;;;0.50;0.50;;;;;;;9.02;61.79;100515.28;5093069;28;20052;-72
2024/01/26 10:06:53;;;;;;;1.38;1.27;;;;;;;9.04;62.35;100498.38;5092729;28;20394;-72
2024/01/26 10:09:25;;;;;;;0.60;0.60;;;;;;;9.14;61.86;100515.53;5093336;28;20508;-72
2024/01/26 10:11:54;;;;;;;1.95;0.93;;;;;;;9.06;60.85;100511.13;5092880;28;20288;-72
2024/01/26 10:14:24;;;;;;;0.30;0.30;;;;;;;9.17;61.63;100497.75;5092986;28;20139;-71
2024/01/26 10:16:57;;;;;;;0.35;0.32;;;;;;;9.26;60.88;100500.47;5094443;28;20131;-72
2024/01/26 10:19:27;;;;;;;1.05;0.95;;;;;;;9.25;60.57;100488.56;5097276;28;20046;-72
2024/01/26 10:21:59;;;;;;;0.30;0.30;;;;;;;9.29;59.64;100475.03;5096703;28;20047;-71
2024/01/26 10:24:30;;;;;;;1.55;0.57;;;;;;;9.21;59.18;100471.50;5096853;28;20036;-72
2024/01/26 10:26:59;;;;;;;0.40;0.40;;;;;;;9.45;58.47;100483.81;5096787;28;20048;-72
2024/01/26 10:29:29;;;;;;;0.30;0.30;;;;;;;9.65;58.37;100476.47;5087286;28;20044;-71
2024/01/26 10:31:58;;;;;;;0.70;0.70;;;;;;;9.64;57.76;100477.31;5093635;28;20059;-72
2024/01/26 10:34:30;;;;;;;0.80;0.70;;;;;;;9.65;57.79;100471.38;5096607;28;20045;-72
2024/01/26 10:37:07;;;;;;;0.68;0.65;;;;;;;9.70;57.19;100467.22;5096678;28;20086;-72
2024/01/26 10:39:39;;;;;;;0.43;0.40;;;;;;;9.74;56.64;100479.19;5095524;28;20048;-72
2024/01/26 10:42:10;;;;;;;0.45;0.45;;;;;;;9.69;56.54;100451.09;5078350;28;20052;-71
2024/01/26 10:44:42;;;;;;;0.77;0.77;;;;;;;9.72;56.22;100471.50;5096507;28;20428;-72
2024/01/26 10:47:13;;;;;;;0.40;0.40;;;;;;;9.71;56.60;100468.94;5096575;28;20090;-72
2024/01/26 10:49:43;;;;;;;0.60;0.40;;;;;;;9.86;56.70;100458.97;5096679;28;20135;-72
2024/01/26 10:52:14;;;;;;;0.68;0.68;;;;;;;9.83;55.85;100464.03;5095963;28;20040;-72
2024/01/26 10:54:48;;;;;;;5.45;1.40;;;;;;;9.38;56.04;100391.13;5096306;28;20055;-72
2024/01/26 10:57:17;;;;;;;0.22;0.22;;;;;;;9.80;55.79;100438.47;5096195;28;20028;-72
2024/01/26 10:59:48;;;;;;;0.47;0.47;;;;;;;10.00;55.56;100442.19;5096324;28;20044;-72
2024/01/26 11:02:27;;;;;;;0.95;0.75;;;;;;;10.13;56.17;100438.97;5094839;28;20083;-72
2024/01/26 11:04:58;;;;;;;0.30;0.30;;;;;;;10.14;55.50;100419.44;5094366;28;20048;-72
2024/01/26 11:07:27;;;;;;;1.83;1.67;;;;;;;10.24;55.78;100427.22;5096036;28;20067;-72
2024/01/26 11:10:00;;;;;;;1.02;0.93;;;;;;;10.26;55.37;100420.44;5096504;28;20466;-72
2024/01/26 11:12:32;;;;;;;0.63;0.63;;;;;;;10.02;54.82;100409.91;5095580;28;20405;-72
2024/01/26 11:15:09;;;;;;;0.30;0.30;;;;;;;10.12;54.57;100427.06;5095536;28;20410;-72
2024/01/26 11:17:43;;;;;;;2.17;1.30;;;;;;;10.10;54.79;100423.63;5094746;28;20052;-72
2024/01/26 11:20:15;;;;;;;2.10;0.88;;;;;;;10.08;54.63;100415.06;5095796;28;20044;-72
2024/01/26 11:22:44;;;;;;;0.57;0.57;;;;;;;10.12;54.31;100416.88;5095757;28;20134;-72
2024/01/26 11:25:24;;;;;;;0.63;0.63;;;;;;;10.25;54.68;100413.63;5094157;28;20063;-72
2024/01/26 11:27:58;;;;;;;;;;;;;;;10.25;54.22;100408.50;5096026;28;20040;-72
2024/01/26 11:30:29;;;;;;;0.50;0.50;;;;;;;10.49;53.93;100403.69;5095721;28;20019;-72
2024/01/26 11:32:59;;;;;;;0.50;0.50;;;;;;;10.52;53.30;100393.53;5095231;28;20048;-72
2024/01/26 11:35:27;;;;;;;;;;;;;;;10.36;53.21;100396.75;5095694;28;20052;-72
2024/01/26 11:37:57;;;;;;;0.50;0.50;;;;;;;10.31;53.87;100388.19;5095345;28;19970;-72
2024/01/26 11:40:26;;;;;;;0.77;0.77;;;;;;;10.47;53.42;100390.06;5095036;28;20057;-71
2024/01/26 11:42:55;;;;;;;1.75;0.60;;;;;;;10.54;53.61;100386.75;5094883;28;20127;-72
2024/01/26 11:45:41;;;;;;;0.85;0.85;;;;;;;10.48;53.31;100376.47;5095320;28;20036;-72
2024/01/26 11:48:12;;;;;;;0.90;0.90;;;;;;;10.19;53.20;100371.88;5095287;28;20072;-72